Flight Track Log - Related Links

Times and Time Zones

All times are in EST time to prevent confusion due to time zone crossing. See the EJM826 flight status page for this flight to view local times or setup timezone preferences in your user account.

Time Position Orientation Groundspeed Altitude Reporting Facility
EST Latitude Longitude Course Direction KTS MPH feet Rate Location/Type
Thu 23:53:24 29.6544 -95.2675 66° East 162 186 600  Level Houston Center
Thu 23:54:43 29.6850 -95.1892 66° East 271 312 3,000 1,371 Climbing Houston Center
Thu 23:55:09 29.6958 -95.1556 70° East 267 307 3,000 98 Level Houston Center
Thu 23:55:44 29.7217 -95.1103 57° Northeast 315 362 3,100  Climbing Houston Center
Thu 23:56:10 29.7558 -95.0956 21° North 292 336 3,000 -98 Descending Houston Center
Thu 23:56:45 29.8047 -95.0783 17° North 293 337 3,000  Level Houston Center
Thu 23:57:10 29.8286 -95.0692 18° North 284 327 3,000  Level Houston Center
Thu 23:57:46 29.8742 -95.0553 15° North 256 295 3,000 -98 Level Houston Center
Thu 23:58:11 29.8992 -95.0458 18° North 272 313 2,900 -727 Descending Houston Center
Thu 23:58:52 29.9439 -95.0394 North 232 267 2,200 -885 Descending Houston Center
Thu 23:59:12 29.9558 -95.0508 320° Northwest 243 280 2,000 -197 Descending Houston Center
Thu 23:59:53 29.9736 -95.0864 300° West 169 194 2,000 98 Level Houston Center
Fri 00:00:13 29.9797 -95.1003 297° West 199 229 2,100  Climbing Houston Center
Fri 00:00:48 29.9783 -95.1364 267° West 166 191 2,000 -100 Descending Houston Center
Fri 00:01:13 29.9761 -95.1539 262° West 183 211 2,000  Level Houston Center
Fri 00:01:49 29.9769 -95.1897 272° West 178 205 2,000 -295 Level Houston Center
Fri 00:02:14 29.9775 -95.2078 272° West 173 199 1,700 -900 Descending Houston Center
Fri 00:02:49 29.9778 -95.2428 271° West 148 170 1,100 -689 Descending Houston Center
Fri 00:03:15 29.9778 -95.2556 270° West 163 188 1,000 -655 Descending Houston Center
Fri 00:03:44 29.9769 -95.2814 268° West 128 147 500 -800 Descending Houston Center
Fri 00:04:15 29.9775 -95.2961 272° West 145 167 200 -581 Descending Houston Center

Login

Don't have an account? Register now (free) for customized features, flight alerts, and more!